Seaboss — 9HXV7 — position and weather

sailwx.info

Track history (hours):
 
Tides and Currents Weather Stations Pressure Air Temp Water Temp Dewpoint Dewpoint Depression Visibility Wind Speed Wind Dir Waves Ship Positions

Seaboss

Last reported at 2018-Feb-11 22:50 UTC. Time now 2018-Feb-19 14:19 UTC.
Position N 01°15' E 104°03'.

Length 190 m; draft 12.2 m.

Type: Cargo ship. MMSI: 215714000.

Date/timePositionNaut miles runAvg speedWind from/ knotsBaromVisibWave heightAir tempDewpointWater temp
2018-Feb-11 22:50N 01°15' E 104°03'3 7.7
2018-Feb-11 22:29N 01°16' E 104°01'3 0.3
2018-Feb-11 11:22N 01°17' E 103°58'0 0.9
2018-Feb-11 10:51N 01°17' E 103°58'1 2.5
2018-Feb-11 10:29N 01°16' E 103°57'2 3.2
2018-Feb-11 09:59N 01°15' E 103°57'3 6.9
2018-Feb-11 09:30N 01°12' E 103°55'510.2
2018-Feb-11 08:59N 01°10' E 103°50'4 8.4
2018-Feb-11 08:30N 01°08' E 103°46'611.8
2018-Feb-11 07:59N 01°04' E 103°42'510.4
2018-Feb-11 07:30N 01°03' E 103°37'811.2
2018-Feb-11 06:47N 01°08' E 103°30'311.4
2018-Feb-11 06:30N 01°09' E 103°27'611.3
2018-Feb-11 05:59N 01°13' E 103°23'  
Track history (hours):
 
Tides and Currents Weather Stations Pressure Air Temp Water Temp Dewpoint Dewpoint Depression Visibility Wind Speed Wind Dir Waves Ship Positions

Seaboss

Last reported at 2018-Feb-11 22:50 UTC. Time now 2018-Feb-19 14:19 UTC.
Position N 01°15' E 104°03'.

Length 190 m; draft 12.2 m.

Type: Cargo ship. MMSI: 215714000.

Date/timePositionNaut miles runAvg speedWind from/ knotsBaromVisibWave heightAir tempDewpointWater temp
2018-Feb-11 22:50N 01°15' E 104°03'3 7.7
2018-Feb-11 22:29N 01°16' E 104°01'3 0.3
2018-Feb-11 11:22N 01°17' E 103°58'0 0.9
2018-Feb-11 10:51N 01°17' E 103°58'1 2.5
2018-Feb-11 10:29N 01°16' E 103°57'2 3.2
2018-Feb-11 09:59N 01°15' E 103°57'3 6.9
2018-Feb-11 09:30N 01°12' E 103°55'510.2
2018-Feb-11 08:59N 01°10' E 103°50'4 8.4
2018-Feb-11 08:30N 01°08' E 103°46'611.8
2018-Feb-11 07:59N 01°04' E 103°42'510.4
2018-Feb-11 07:30N 01°03' E 103°37'811.2
2018-Feb-11 06:47N 01°08' E 103°30'311.4
2018-Feb-11 06:30N 01°09' E 103°27'611.3
2018-Feb-11 05:59N 01°13' E 103°23'  

Dump ship's entire track history